createdAt,value
2018-10-11T00:02:21.568Z,100596.00
2018-10-11T00:08:26.174Z,100593.00
2018-10-11T00:14:30.466Z,100593.00
2018-10-11T00:20:34.167Z,100602.00
2018-10-11T00:26:37.945Z,100598.00
2018-10-11T00:32:41.797Z,100604.00
2018-10-11T00:38:45.534Z,100609.00
2018-10-11T00:44:49.167Z,100603.00
2018-10-11T00:50:52.781Z,100596.00
2018-10-11T00:56:56.297Z,100590.00
2018-10-11T01:02:59.903Z,100589.00
2018-10-11T01:09:03.911Z,100582.00
2018-10-11T01:15:07.791Z,100561.00
2018-10-11T01:21:11.402Z,100559.00
2018-10-11T01:27:15.447Z,100551.00
2018-10-11T01:33:19.998Z,100557.00
2018-10-11T01:39:24.688Z,100554.00
2018-10-11T01:45:28.323Z,100562.00
2018-10-11T01:51:31.886Z,100549.00
2018-10-11T01:57:35.241Z,100554.00
2018-10-11T02:03:38.695Z,100541.00
2018-10-11T02:09:42.606Z,100538.00
2018-10-11T02:15:46.201Z,100534.00
2018-10-11T02:21:49.698Z,100528.00
2018-10-11T02:27:53.314Z,100518.00
2018-10-11T02:33:57.121Z,100510.00
2018-10-11T02:40:00.970Z,100516.00
2018-10-11T02:46:04.964Z,100518.00
2018-10-11T02:52:09.125Z,100523.00
2018-10-11T02:58:29.387Z,100534.00
2018-10-11T03:04:34.570Z,100532.00
2018-10-11T03:10:38.182Z,100510.00
2018-10-11T03:16:42.019Z,100510.00
2018-10-11T03:22:45.677Z,100509.00
2018-10-11T03:28:49.178Z,100504.00
2018-10-11T03:34:53.090Z,100507.00
2018-10-11T03:40:56.895Z,100512.00
2018-10-11T03:47:01.177Z,100529.00
2018-10-11T03:53:05.233Z,100533.00
2018-10-11T03:59:09.023Z,100530.00
2018-10-11T04:05:12.848Z,100527.00
2018-10-11T04:11:16.765Z,100532.00
2018-10-11T04:17:20.656Z,100536.00
2018-10-11T04:23:27.457Z,100490.00
2018-10-11T04:29:31.134Z,100522.00
2018-10-11T04:35:34.704Z,100516.00
2018-10-11T04:41:39.042Z,100521.00
2018-10-11T04:47:42.375Z,100508.00
2018-10-11T04:53:50.398Z,100517.00
2018-10-11T04:59:54.250Z,100519.00
2018-10-11T05:05:58.064Z,100519.00
2018-10-11T05:12:02.627Z,100513.00
2018-10-11T05:18:07.394Z,100521.00
2018-10-11T05:24:10.913Z,100535.00
2018-10-11T05:30:14.350Z,100544.00
2018-10-11T05:36:18.030Z,100546.00
2018-10-11T05:42:22.388Z,100540.00
2018-10-11T05:48:28.083Z,100558.00
2018-10-11T05:54:31.545Z,100541.00
2018-10-11T06:00:35.116Z,100544.00
2018-10-11T06:06:38.798Z,100573.00
2018-10-11T06:12:42.780Z,100580.00
2018-10-11T06:18:49.263Z,100589.00
2018-10-11T06:24:52.724Z,100580.00
2018-10-11T06:30:56.924Z,100579.00
2018-10-11T06:37:01.884Z,100597.00
2018-10-11T06:43:06.199Z,100595.00
2018-10-11T06:49:09.682Z,100606.00
2018-10-11T06:55:13.202Z,100624.00
2018-10-11T07:01:16.898Z,100627.00
2018-10-11T07:07:20.999Z,100642.00
2018-10-11T07:13:24.549Z,100657.00
2018-10-11T07:19:32.224Z,100647.00
2018-10-11T07:25:35.931Z,100643.00
2018-10-11T07:31:40.180Z,100665.00
2018-10-11T07:37:44.369Z,100661.00
2018-10-11T07:43:48.217Z,100669.00
2018-10-11T07:49:52.033Z,100681.00
2018-10-11T07:55:55.611Z,100688.00
2018-10-11T08:01:59.133Z,100675.00
2018-10-11T08:08:03.177Z,100678.00
2018-10-11T08:14:07.281Z,100688.00
2018-10-11T08:20:11.750Z,100684.00
2018-10-11T08:26:15.819Z,100689.00
2018-10-11T08:32:20.337Z,100693.00
2018-10-11T08:38:24.340Z,100687.00
2018-10-11T08:44:28.226Z,100705.00
2018-10-11T08:50:32.228Z,100697.00
2018-10-11T08:56:35.852Z,100697.00
2018-10-11T09:02:39.486Z,100693.00
2018-10-11T09:08:43.511Z,100695.00
2018-10-11T09:14:47.148Z,100649.00
2018-10-11T09:20:50.545Z,100696.00
2018-10-11T09:26:54.507Z,100693.00
2018-10-11T09:32:58.281Z,100675.00
2018-10-11T09:39:02.026Z,100687.00
2018-10-11T09:45:06.669Z,100684.00
2018-10-11T09:51:10.870Z,100674.00
2018-10-11T09:57:24.198Z,100675.00
2018-10-11T10:03:27.962Z,100674.00
2018-10-11T10:09:31.336Z,100672.00
2018-10-11T10:15:35.069Z,100673.00
2018-10-11T10:21:38.553Z,100669.00
2018-10-11T10:27:42.026Z,100671.00
2018-10-11T10:33:45.861Z,100665.00
2018-10-11T10:39:49.302Z,100658.00
2018-10-11T10:45:53.212Z,100658.00
2018-10-11T10:51:57.054Z,100644.00
2018-10-11T10:58:00.799Z,100640.00
2018-10-11T11:04:04.589Z,100639.00
2018-10-11T11:10:08.564Z,100635.00
2018-10-11T11:16:13.008Z,100620.00
2018-10-11T11:22:16.703Z,100621.00
2018-10-11T11:28:20.542Z,100613.00
2018-10-11T11:34:24.267Z,100604.00
2018-10-11T11:40:27.752Z,100606.00
2018-10-11T11:46:32.225Z,100609.00
2018-10-11T11:52:35.744Z,100602.00
2018-10-11T11:58:40.487Z,100610.00
2018-10-11T12:04:44.856Z,100617.00
2018-10-11T12:10:48.856Z,100597.00
2018-10-11T12:16:52.821Z,100598.00
2018-10-11T12:22:57.325Z,100600.00
2018-10-11T12:29:01.081Z,100603.00
2018-10-11T12:35:04.926Z,100599.00
2018-10-11T12:41:08.762Z,100562.00
2018-10-11T12:47:13.716Z,100603.00
2018-10-11T12:53:18.052Z,100592.00
2018-10-11T12:59:21.554Z,100608.00
2018-10-11T13:05:25.315Z,100610.00
2018-10-11T13:11:30.181Z,100616.00
2018-10-11T13:17:38.430Z,100623.00
2018-10-11T13:23:37.873Z,100615.00
2018-10-11T13:29:41.753Z,100622.00
2018-10-11T13:35:46.602Z,100626.00
2018-10-11T13:41:50.246Z,100629.00
2018-10-11T13:47:53.973Z,100621.00
2018-10-11T13:53:58.680Z,100623.00
2018-10-11T14:00:01.142Z,100619.00
2018-10-11T14:06:04.863Z,100616.00
2018-10-11T14:12:08.287Z,100617.00
2018-10-11T14:18:12.812Z,100614.00
2018-10-11T14:24:17.340Z,100618.00
2018-10-11T14:30:21.007Z,100612.00
2018-10-11T14:36:24.835Z,100610.00
2018-10-11T14:42:28.856Z,100602.00
2018-10-11T14:48:32.827Z,100593.00
2018-10-11T14:54:36.655Z,100586.00
2018-10-11T15:00:40.261Z,100590.00
2018-10-11T15:13:19.645Z,100589.00
2018-10-11T15:19:23.954Z,100578.00
2018-10-11T15:25:27.543Z,100576.00
2018-10-11T15:31:31.785Z,100578.00
2018-10-11T15:37:35.515Z,100571.00
2018-10-11T15:43:39.126Z,100572.00
2018-10-11T15:49:42.601Z,100571.00
2018-10-11T15:55:46.680Z,100578.00
2018-10-11T16:01:51.133Z,100578.00
2018-10-11T16:07:55.082Z,100577.00
2018-10-11T16:13:59.315Z,100575.00
2018-10-11T16:20:03.546Z,100587.00
2018-10-11T16:26:07.400Z,100582.00
2018-10-11T16:32:11.028Z,100582.00
2018-10-11T16:38:14.686Z,100591.00
2018-10-11T16:44:18.439Z,100595.00
2018-10-11T16:50:22.569Z,100599.00
2018-10-11T16:56:26.100Z,100614.00
2018-10-11T17:02:29.578Z,100621.00
2018-10-11T17:08:33.294Z,100636.00
2018-10-11T17:14:37.440Z,100645.00
2018-10-11T17:20:41.166Z,100636.00
2018-10-11T17:26:44.780Z,100647.00
2018-10-11T17:32:50.025Z,100649.00
2018-10-11T17:38:53.423Z,100657.00
2018-10-11T17:44:56.988Z,100656.00
2018-10-11T17:51:00.699Z,100663.00
2018-10-11T17:57:04.922Z,100669.00
2018-10-11T18:03:08.696Z,100687.00
2018-10-11T18:09:12.545Z,100700.00
2018-10-11T18:15:16.222Z,100690.00
2018-10-11T18:21:19.997Z,100694.00
2018-10-11T18:27:23.442Z,100690.00
2018-10-11T18:33:26.983Z,100685.00
2018-10-11T18:39:30.782Z,100686.00
2018-10-11T18:45:34.762Z,100699.00
2018-10-11T18:51:38.729Z,100702.00
2018-10-11T18:57:42.396Z,100725.00
2018-10-11T19:03:45.880Z,100705.00
2018-10-11T19:09:52.898Z,100707.00
2018-10-11T19:15:57.352Z,100709.00
2018-10-11T19:22:00.922Z,100703.00
2018-10-11T19:28:04.561Z,100720.00
2018-10-11T19:34:08.702Z,100711.00
2018-10-11T19:40:13.515Z,100712.00
2018-10-11T19:46:17.941Z,100701.00
2018-10-11T19:52:21.445Z,100703.00
2018-10-11T19:58:25.132Z,100720.00
2018-10-11T20:04:28.636Z,100719.00
2018-10-11T20:10:32.689Z,100727.00
2018-10-11T20:16:36.805Z,100732.00
2018-10-11T20:22:40.506Z,100733.00
2018-10-11T20:28:44.236Z,100729.00
2018-10-11T20:34:47.805Z,100717.00
2018-10-11T20:40:51.375Z,100723.00
2018-10-11T20:46:56.190Z,100730.00
2018-10-11T20:52:59.655Z,100723.00
2018-10-11T20:59:03.397Z,100722.00
2018-10-11T21:05:07.047Z,100728.00
2018-10-11T21:11:17.501Z,100729.00
2018-10-11T21:17:20.959Z,100723.00
2018-10-11T21:23:24.799Z,100737.00
2018-10-11T21:29:28.295Z,100735.00
2018-10-11T21:35:32.016Z,100733.00
2018-10-11T21:41:41.699Z,100721.00
2018-10-11T21:47:45.558Z,100724.00
2018-10-11T21:53:49.205Z,100715.00
2018-10-11T21:59:53.158Z,100704.00
2018-10-11T22:05:57.623Z,100694.00
2018-10-11T22:12:01.674Z,100703.00
2018-10-11T22:18:05.683Z,100704.00
2018-10-11T22:24:09.734Z,100706.00
2018-10-11T22:30:13.749Z,100706.00
